sensor_id;sensor_type;location;lat;lon;timestamp;pressure;altitude;pressure_sealevel;temperature;humidity
70053;BME280;57398;52.032;4.376;2023-04-27T00:01:44;101002.13;;;2.02;nan
70053;BME280;57398;52.032;4.376;2023-04-27T00:04:32;100999.38;;;1.96;nan
70053;BME280;57398;52.032;4.376;2023-04-27T00:07:20;100990.91;;;1.95;nan
70053;BME280;57398;52.032;4.376;2023-04-27T00:10:09;100985.59;;;1.97;nan
70053;BME280;57398;52.032;4.376;2023-04-27T00:12:59;100976.94;;;1.89;nan
70053;BME280;57398;52.032;4.376;2023-04-27T00:15:48;100975.03;;;1.83;nan
70053;BME280;57398;52.032;4.376;2023-04-27T00:18:36;100975.97;;;1.74;nan
70053;BME280;57398;52.032;4.376;2023-04-27T00:21:25;100980.13;;;1.75;nan
70053;BME280;57398;52.032;4.376;2023-04-27T00:24:13;100971.78;;;1.73;nan
70053;BME280;57398;52.032;4.376;2023-04-27T00:27:03;100969.69;;;1.68;nan
70053;BME280;57398;52.032;4.376;2023-04-27T00:29:53;100962.34;;;1.65;nan
70053;BME280;57398;52.032;4.376;2023-04-27T00:32:41;100954.63;;;1.57;nan
70053;BME280;57398;52.032;4.376;2023-04-27T00:35:31;100957.50;;;1.62;nan
70053;BME280;57398;52.032;4.376;2023-04-27T00:38:20;100953.50;;;1.52;nan
70053;BME280;57398;52.032;4.376;2023-04-27T00:41:08;100950.59;;;1.46;nan
70053;BME280;57398;52.032;4.376;2023-04-27T00:43:56;100935.22;;;1.46;nan
70053;BME280;57398;52.032;4.376;2023-04-27T00:46:46;100945.59;;;1.37;nan
70053;BME280;57398;52.032;4.376;2023-04-27T00:49:34;100947.38;;;1.36;nan
70053;BME280;57398;52.032;4.376;2023-04-27T00:52:22;100948.34;;;1.35;nan
70053;BME280;57398;52.032;4.376;2023-04-27T00:55:11;100944.31;;;1.33;nan
70053;BME280;57398;52.032;4.376;2023-04-27T00:57:59;100943.03;;;1.37;nan
70053;BME280;57398;52.032;4.376;2023-04-27T01:00:47;100953.91;;;1.31;nan
70053;BME280;57398;52.032;4.376;2023-04-27T01:03:38;100967.50;;;1.31;nan
70053;BME280;57398;52.032;4.376;2023-04-27T01:06:27;100964.94;;;1.31;nan
70053;BME280;57398;52.032;4.376;2023-04-27T01:09:15;100960.28;;;1.27;nan
70053;BME280;57398;52.032;4.376;2023-04-27T01:12:06;100953.53;;;1.17;nan
70053;BME280;57398;52.032;4.376;2023-04-27T01:14:54;100952.19;;;1.05;nan
70053;BME280;57398;52.032;4.376;2023-04-27T01:17:42;100954.59;;;1.07;nan
70053;BME280;57398;52.032;4.376;2023-04-27T01:20:32;100945.75;;;0.93;nan
70053;BME280;57398;52.032;4.376;2023-04-27T01:23:21;100948.81;;;0.96;nan
70053;BME280;57398;52.032;4.376;2023-04-27T01:26:10;100950.44;;;1.06;nan
70053;BME280;57398;52.032;4.376;2023-04-27T01:29:02;100942.72;;;0.97;nan
70053;BME280;57398;52.032;4.376;2023-04-27T01:31:50;100947.84;;;0.97;nan
70053;BME280;57398;52.032;4.376;2023-04-27T01:34:38;100948.28;;;0.93;nan
70053;BME280;57398;52.032;4.376;2023-04-27T01:37:26;100954.53;;;0.90;nan
70053;BME280;57398;52.032;4.376;2023-04-27T01:40:16;100949.88;;;0.86;nan
70053;BME280;57398;52.032;4.376;2023-04-27T01:43:04;100957.03;;;0.82;nan
70053;BME280;57398;52.032;4.376;2023-04-27T01:45:53;100960.22;;;0.84;nan
70053;BME280;57398;52.032;4.376;2023-04-27T01:48:41;100974.00;;;0.83;nan
70053;BME280;57398;52.032;4.376;2023-04-27T01:51:29;100972.34;;;0.74;nan
70053;BME280;57398;52.032;4.376;2023-04-27T01:54:18;100986.84;;;0.73;nan
70053;BME280;57398;52.032;4.376;2023-04-27T01:57:08;100982.19;;;0.69;nan
70053;BME280;57398;52.032;4.376;2023-04-27T01:59:56;100993.88;;;0.71;nan
70053;BME280;57398;52.032;4.376;2023-04-27T02:02:44;100983.94;;;0.68;nan
70053;BME280;57398;52.032;4.376;2023-04-27T02:05:32;100997.06;;;0.73;nan
70053;BME280;57398;52.032;4.376;2023-04-27T02:08:20;101005.91;;;0.79;nan
70053;BME280;57398;52.032;4.376;2023-04-27T02:11:08;100994.06;;;0.78;nan
70053;BME280;57398;52.032;4.376;2023-04-27T02:13:58;101000.59;;;0.72;nan
70053;BME280;57398;52.032;4.376;2023-04-27T02:16:46;100998.47;;;0.68;nan
70053;BME280;57398;52.032;4.376;2023-04-27T02:19:34;101012.59;;;0.72;nan
70053;BME280;57398;52.032;4.376;2023-04-27T02:22:23;101013.16;;;0.66;nan
70053;BME280;57398;52.032;4.376;2023-04-27T02:25:11;101025.94;;;0.66;nan
70053;BME280;57398;52.032;4.376;2023-04-27T02:28:02;101966.59;;;0.69;nan
70053;BME280;57398;52.032;4.376;2023-04-27T02:30:51;102030.72;;;0.77;nan
70053;BME280;57398;52.032;4.376;2023-04-27T02:33:40;102044.16;;;0.69;nan
70053;BME280;57398;52.032;4.376;2023-04-27T02:36:28;102045.50;;;0.73;nan
70053;BME280;57398;52.032;4.376;2023-04-27T02:39:17;102048.25;;;0.81;nan
70053;BME280;57398;52.032;4.376;2023-04-27T02:42:05;102045.53;;;0.94;nan
70053;BME280;57398;52.032;4.376;2023-04-27T02:44:53;102042.28;;;0.92;nan
70053;BME280;57398;52.032;4.376;2023-04-27T02:47:43;102045.22;;;0.88;nan
70053;BME280;57398;52.032;4.376;2023-04-27T02:50:31;102043.34;;;0.90;nan
70053;BME280;57398;52.032;4.376;2023-04-27T02:53:19;102038.78;;;0.93;nan
70053;BME280;57398;52.032;4.376;2023-04-27T02:56:07;102044.59;;;0.95;nan
70053;BME280;57398;52.032;4.376;2023-04-27T02:58:55;102037.84;;;0.94;nan
70053;BME280;57398;52.032;4.376;2023-04-27T03:01:44;102033.66;;;0.93;nan
70053;BME280;57398;52.032;4.376;2023-04-27T03:04:33;102024.06;;;0.86;nan
70053;BME280;57398;52.032;4.376;2023-04-27T03:07:22;102022.31;;;0.86;nan
70053;BME280;57398;52.032;4.376;2023-04-27T03:10:10;102020.88;;;0.93;nan
70053;BME280;57398;52.032;4.376;2023-04-27T03:12:59;102021.81;;;0.92;nan
70053;BME280;57398;52.032;4.376;2023-04-27T03:15:47;102022.50;;;0.94;nan
70053;BME280;57398;52.032;4.376;2023-04-27T03:18:35;102019.38;;;0.91;nan
70053;BME280;57398;52.032;4.376;2023-04-27T03:21:25;102015.94;;;1.01;nan
70053;BME280;57398;52.032;4.376;2023-04-27T03:24:14;102015.94;;;1.01;nan
70053;BME280;57398;52.032;4.376;2023-04-27T03:27:03;102010.78;;;0.92;nan
70053;BME280;57398;52.032;4.376;2023-04-27T03:29:54;101998.38;;;0.87;nan
70053;BME280;57398;52.032;4.376;2023-04-27T03:32:42;101991.19;;;0.81;nan
70053;BME280;57398;52.032;4.376;2023-04-27T03:35:33;101997.00;;;0.83;nan
70053;BME280;57398;52.032;4.376;2023-04-27T03:38:23;101993.97;;;0.78;nan
70053;BME280;57398;52.032;4.376;2023-04-27T03:41:11;101996.03;;;0.84;nan
70053;BME280;57398;52.032;4.376;2023-04-27T03:43:59;101995.16;;;0.95;nan
70053;BME280;57398;52.032;4.376;2023-04-27T03:46:47;101994.41;;;1.04;nan
70053;BME280;57398;52.032;4.376;2023-04-27T03:49:36;101990.66;;;1.08;nan
70053;BME280;57398;52.032;4.376;2023-04-27T03:52:24;101992.06;;;1.22;nan
70053;BME280;57398;52.032;4.376;2023-04-27T03:55:14;101991.81;;;1.25;nan
70053;BME280;57398;52.032;4.376;2023-04-27T03:58:02;101995.19;;;1.25;nan
70053;BME280;57398;52.032;4.376;2023-04-27T04:00:50;101988.03;;;1.19;nan
70053;BME280;57398;52.032;4.376;2023-04-27T04:03:40;101994.34;;;1.15;nan
70053;BME280;57398;52.032;4.376;2023-04-27T04:06:28;101998.09;;;1.11;nan
70053;BME280;57398;52.032;4.376;2023-04-27T04:09:16;101995.63;;;1.10;nan
70053;BME280;57398;52.032;4.376;2023-04-27T04:12:06;101995.47;;;1.01;nan
70053;BME280;57398;52.032;4.376;2023-04-27T04:14:55;102000.97;;;0.97;nan
70053;BME280;57398;52.032;4.376;2023-04-27T04:17:43;102009.72;;;0.94;nan
70053;BME280;57398;52.032;4.376;2023-04-27T04:20:33;102007.75;;;0.87;nan
70053;BME280;57398;52.032;4.376;2023-04-27T04:23:21;102001.41;;;0.81;nan
70053;BME280;57398;52.032;4.376;2023-04-27T04:26:10;102008.03;;;0.83;nan
70053;BME280;57398;52.032;4.376;2023-04-27T04:29:02;102006.16;;;0.86;nan
70053;BME280;57398;52.032;4.376;2023-04-27T04:31:50;102013.03;;;0.85;nan
70053;BME280;57398;52.032;4.376;2023-04-27T04:34:39;102019.50;;;0.89;nan
70053;BME280;57398;52.032;4.376;2023-04-27T04:37:27;102016.00;;;0.90;nan
70053;BME280;57398;52.032;4.376;2023-04-27T04:40:15;102021.94;;;0.91;nan
70053;BME280;57398;52.032;4.376;2023-04-27T04:43:03;102020.69;;;0.85;nan
70053;BME280;57398;52.032;4.376;2023-04-27T04:45:52;102016.38;;;0.86;nan
70053;BME280;57398;52.032;4.376;2023-04-27T04:48:40;102024.88;;;0.86;nan
70053;BME280;57398;52.032;4.376;2023-04-27T04:51:29;102020.56;;;0.87;nan
70053;BME280;57398;52.032;4.376;2023-04-27T04:54:17;102013.84;;;0.86;nan
70053;BME280;57398;52.032;4.376;2023-04-27T04:57:05;102022.75;;;0.91;nan
70053;BME280;57398;52.032;4.376;2023-04-27T04:59:53;102028.16;;;0.98;nan
70053;BME280;57398;52.032;4.376;2023-04-27T05:02:45;102025.91;;;1.04;nan
70053;BME280;57398;52.032;4.376;2023-04-27T05:05:34;102030.53;;;1.11;nan
70053;BME280;57398;52.032;4.376;2023-04-27T05:08:22;102032.53;;;1.07;nan
70053;BME280;57398;52.032;4.376;2023-04-27T05:11:10;102033.78;;;1.13;nan
70053;BME280;57398;52.032;4.376;2023-04-27T05:13:58;102037.69;;;1.17;nan
70053;BME280;57398;52.032;4.376;2023-04-27T05:16:46;102036.28;;;1.24;nan
70053;BME280;57398;52.032;4.376;2023-04-27T05:19:39;102039.00;;;1.32;nan
70053;BME280;57398;52.032;4.376;2023-04-27T05:22:28;102043.97;;;1.24;nan
70053;BME280;57398;52.032;4.376;2023-04-27T05:25:16;102041.94;;;1.28;nan
70053;BME280;57398;52.032;4.376;2023-04-27T05:28:04;102045.91;;;1.41;nan
70053;BME280;57398;52.032;4.376;2023-04-27T05:30:52;102049.84;;;1.45;nan
70053;BME280;57398;52.032;4.376;2023-04-27T05:33:40;102043.94;;;1.55;nan
70053;BME280;57398;52.032;4.376;2023-04-27T05:36:30;102040.78;;;1.72;nan
70053;BME280;57398;52.032;4.376;2023-04-27T05:39:18;102040.00;;;1.81;nan
70053;BME280;57398;52.032;4.376;2023-04-27T05:42:06;102038.25;;;1.92;nan
70053;BME280;57398;52.032;4.376;2023-04-27T05:44:54;102030.75;;;2.00;nan
70053;BME280;57398;52.032;4.376;2023-04-27T05:47:42;102046.41;;;2.06;nan
70053;BME280;57398;52.032;4.376;2023-04-27T05:50:31;102047.50;;;2.14;nan
70053;BME280;57398;52.032;4.376;2023-04-27T05:53:20;102048.44;;;2.22;nan
70053;BME280;57398;52.032;4.376;2023-04-27T05:56:08;102054.09;;;2.36;nan
70053;BME280;57398;52.032;4.376;2023-04-27T05:58:57;102064.25;;;2.47;nan
70053;BME280;57398;52.032;4.376;2023-04-27T06:01:48;102069.00;;;2.61;nan
70053;BME280;57398;52.032;4.376;2023-04-27T06:04:37;102072.34;;;2.81;nan
70053;BME280;57398;52.032;4.376;2023-04-27T06:07:25;102076.66;;;2.90;nan
70053;BME280;57398;52.032;4.376;2023-04-27T06:10:16;102091.50;;;3.06;nan
70053;BME280;57398;52.032;4.376;2023-04-27T06:13:04;102087.25;;;3.25;nan
70053;BME280;57398;52.032;4.376;2023-04-27T06:15:52;102096.03;;;3.42;nan
70053;BME280;57398;52.032;4.376;2023-04-27T06:18:42;102116.00;;;3.58;nan
70053;BME280;57398;52.032;4.376;2023-04-27T06:21:33;102124.56;;;3.76;nan
70053;BME280;57398;52.032;4.376;2023-04-27T06:24:22;102152.94;;;3.84;nan
70053;BME280;57398;52.032;4.376;2023-04-27T06:27:11;102158.44;;;3.99;nan
70053;BME280;57398;52.032;4.376;2023-04-27T06:29:59;102180.56;;;4.10;nan
70053;BME280;57398;52.032;4.376;2023-04-27T06:32:48;102200.28;;;4.19;nan
70053;BME280;57398;52.032;4.376;2023-04-27T06:35:36;102204.19;;;4.23;nan
70053;BME280;57398;52.032;4.376;2023-04-27T06:38:24;102232.31;;;4.34;nan
70053;BME280;57398;52.032;4.376;2023-04-27T06:41:12;102255.22;;;4.55;nan
70053;BME280;57398;52.032;4.376;2023-04-27T06:44:01;102268.88;;;4.66;nan
70053;BME280;57398;52.032;4.376;2023-04-27T06:46:50;102289.09;;;4.78;nan
70053;BME280;57398;52.032;4.376;2023-04-27T06:49:38;102304.59;;;4.96;nan
70053;BME280;57398;52.032;4.376;2023-04-27T06:52:26;102311.66;;;4.94;nan
70053;BME280;57398;52.032;4.376;2023-04-27T06:55:14;102310.88;;;5.12;nan
70053;BME280;57398;52.032;4.376;2023-04-27T06:58:02;102306.69;;;5.29;nan
70053;BME280;57398;52.032;4.376;2023-04-27T07:00:52;102305.00;;;5.37;nan
70053;BME280;57398;52.032;4.376;2023-04-27T07:03:40;102286.53;;;5.42;nan
70053;BME280;57398;52.032;4.376;2023-04-27T07:06:29;102266.19;;;5.57;nan
70053;BME280;57398;52.032;4.376;2023-04-27T07:09:18;102242.44;;;5.71;nan
70053;BME280;57398;52.032;4.376;2023-04-27T07:12:12;102230.16;;;5.91;nan
70053;BME280;57398;52.032;4.376;2023-04-27T07:15:00;102215.72;;;5.98;nan
70053;BME280;57398;52.032;4.376;2023-04-27T07:17:51;102215.94;;;6.13;nan
70053;BME280;57398;52.032;4.376;2023-04-27T07:20:40;102174.53;;;6.23;nan
70053;BME280;57398;52.032;4.376;2023-04-27T07:23:29;102141.66;;;6.33;nan
70053;BME280;57398;52.032;4.376;2023-04-27T07:26:18;102110.06;;;6.47;nan
70053;BME280;57398;52.032;4.376;2023-04-27T07:29:07;102082.19;;;6.51;nan
70053;BME280;57398;52.032;4.376;2023-04-27T07:32:11;102050.38;;;6.59;nan
70053;BME280;57398;52.032;4.376;2023-04-27T07:35:02;102033.59;;;6.71;nan
70053;BME280;57398;52.032;4.376;2023-04-27T07:37:51;102021.97;;;6.83;nan
70053;BME280;57398;52.032;4.376;2023-04-27T07:40:42;102020.63;;;7.04;nan
70053;BME280;57398;52.032;4.376;2023-04-27T07:43:31;102024.31;;;7.18;nan
70053;BME280;57398;52.032;4.376;2023-04-27T07:46:19;102016.84;;;7.31;nan
70053;BME280;57398;52.032;4.376;2023-04-27T07:49:07;102006.16;;;7.34;nan
70053;BME280;57398;52.032;4.376;2023-04-27T07:51:57;102005.63;;;7.47;nan
70053;BME280;57398;52.032;4.376;2023-04-27T07:54:45;101999.69;;;7.69;nan
70053;BME280;57398;52.032;4.376;2023-04-27T07:57:33;101998.50;;;7.80;nan
70053;BME280;57398;52.032;4.376;2023-04-27T08:00:22;102007.38;;;7.86;nan
70053;BME280;57398;52.032;4.376;2023-04-27T08:03:11;102010.56;;;7.88;nan
70053;BME280;57398;52.032;4.376;2023-04-27T08:05:59;102008.81;;;7.88;nan
70053;BME280;57398;52.032;4.376;2023-04-27T08:08:51;101999.25;;;8.12;nan
70053;BME280;57398;52.032;4.376;2023-04-27T08:11:41;101973.31;;;8.20;nan
70053;BME280;57398;52.032;4.376;2023-04-27T08:14:29;101962.97;;;8.43;nan
70053;BME280;57398;52.032;4.376;2023-04-27T08:17:18;101961.06;;;8.52;nan
70053;BME280;57398;52.032;4.376;2023-04-27T08:20:08;101952.19;;;8.54;nan
70053;BME280;57398;52.032;4.376;2023-04-27T08:22:57;101941.00;;;8.69;nan
70053;BME280;57398;52.032;4.376;2023-04-27T08:25:47;101944.50;;;8.76;nan
70053;BME280;57398;52.032;4.376;2023-04-27T08:28:35;101934.19;;;8.97;nan
70053;BME280;57398;52.032;4.376;2023-04-27T08:31:23;101929.63;;;9.14;nan
70053;BME280;57398;52.032;4.376;2023-04-27T08:34:11;101930.34;;;9.08;nan
70053;BME280;57398;52.032;4.376;2023-04-27T08:37:00;101934.13;;;9.06;nan
70053;BME280;57398;52.032;4.376;2023-04-27T08:39:50;101913.53;;;9.19;nan
70053;BME280;57398;52.032;4.376;2023-04-27T08:42:52;101904.53;;;9.36;nan
70053;BME280;57398;52.032;4.376;2023-04-27T08:45:47;101895.34;;;9.77;nan
70053;BME280;57398;52.032;4.376;2023-04-27T08:48:36;101888.44;;;10.75;nan
70053;BME280;57398;52.032;4.376;2023-04-27T08:51:25;101866.41;;;11.26;nan
70053;BME280;57398;52.032;4.376;2023-04-27T08:54:14;101861.44;;;11.71;nan
70053;BME280;57398;52.032;4.376;2023-04-27T08:57:07;101846.34;;;12.40;nan
70053;BME280;57398;52.032;4.376;2023-04-27T09:00:00;101629.81;;;11.71;nan
70053;BME280;57398;52.032;4.376;2023-04-27T09:02:57;101585.44;;;12.29;nan
70053;BME280;57398;52.032;4.376;2023-04-27T09:05:50;101538.84;;;12.21;nan
70053;BME280;57398;52.032;4.376;2023-04-27T09:08:49;101528.88;;;12.62;nan
70053;BME280;57398;52.032;4.376;2023-04-27T09:11:38;101525.63;;;12.41;nan
70053;BME280;57398;52.032;4.376;2023-04-27T09:14:26;101534.22;;;11.91;nan
70053;BME280;57398;52.032;4.376;2023-04-27T09:17:23;101546.31;;;12.11;nan
70053;BME280;57398;52.032;4.376;2023-04-27T09:20:12;101538.72;;;12.34;nan
70053;BME280;57398;52.032;4.376;2023-04-27T09:23:02;101550.69;;;12.67;nan
70053;BME280;57398;52.032;4.376;2023-04-27T09:25:50;101570.78;;;12.85;nan
70053;BME280;57398;52.032;4.376;2023-04-27T09:28:39;101560.47;;;12.22;nan
70053;BME280;57398;52.032;4.376;2023-04-27T09:31:30;101558.78;;;12.59;nan
70053;BME280;57398;52.032;4.376;2023-04-27T09:34:20;101555.63;;;12.25;nan
70053;BME280;57398;52.032;4.376;2023-04-27T09:37:09;101535.22;;;12.47;nan
70053;BME280;57398;52.032;4.376;2023-04-27T09:40:01;101543.13;;;12.34;nan
70053;BME280;57398;52.032;4.376;2023-04-27T09:42:50;101559.94;;;13.07;nan
70053;BME280;57398;52.032;4.376;2023-04-27T09:45:38;101596.88;;;13.29;nan
70053;BME280;57398;52.032;4.376;2023-04-27T09:48:26;101626.31;;;13.11;nan
70053;BME280;57398;52.032;4.376;2023-04-27T09:51:16;101639.25;;;12.99;nan
70053;BME280;57398;52.032;4.376;2023-04-27T09:54:04;101672.69;;;13.09;nan
70053;BME280;57398;52.032;4.376;2023-04-27T09:57:03;101681.19;;;12.97;nan
70053;BME280;57398;52.032;4.376;2023-04-27T10:00:05;101691.94;;;13.33;nan
70053;BME280;57398;52.032;4.376;2023-04-27T10:03:14;101730.56;;;13.49;nan
70053;BME280;57398;52.032;4.376;2023-04-27T10:06:45;101804.56;;;12.98;nan
70053;BME280;57398;52.032;4.376;2023-04-27T10:09:40;101807.59;;;13.27;nan
70053;BME280;57398;52.032;4.376;2023-04-27T10:12:32;101855.47;;;13.46;nan
70053;BME280;57398;52.032;4.376;2023-04-27T10:15:25;101878.53;;;13.10;nan
70053;BME280;57398;52.032;4.376;2023-04-27T10:18:24;101924.19;;;13.65;nan
70053;BME280;57398;52.032;4.376;2023-04-27T10:21:13;101956.06;;;13.41;nan
70053;BME280;57398;52.032;4.376;2023-04-27T10:24:07;101976.25;;;13.08;nan
70053;BME280;57398;52.032;4.376;2023-04-27T10:27:00;102002.59;;;13.51;nan
70053;BME280;57398;52.032;4.376;2023-04-27T10:29:51;102037.59;;;13.82;nan
70053;BME280;57398;52.032;4.376;2023-04-27T10:32:49;102058.88;;;13.40;nan
70053;BME280;57398;52.032;4.376;2023-04-27T10:35:39;102062.78;;;12.98;nan
70053;BME280;57398;52.032;4.376;2023-04-27T10:38:29;102056.31;;;13.07;nan
70053;BME280;57398;52.032;4.376;2023-04-27T10:41:19;102033.16;;;13.44;nan
70053;BME280;57398;52.032;4.376;2023-04-27T10:44:12;102060.13;;;13.31;nan
70053;BME280;57398;52.032;4.376;2023-04-27T10:47:11;102085.00;;;13.14;nan
70053;BME280;57398;52.032;4.376;2023-04-27T10:50:01;102103.13;;;12.49;nan
70053;BME280;57398;52.032;4.376;2023-04-27T10:52:49;102078.84;;;12.55;nan
70053;BME280;57398;52.032;4.376;2023-04-27T10:55:38;102069.41;;;12.87;nan
70053;BME280;57398;52.032;4.376;2023-04-27T10:58:28;102085.69;;;12.56;nan
70053;BME280;57398;52.032;4.376;2023-04-27T11:01:31;102089.50;;;12.67;nan
70053;BME280;57398;52.032;4.376;2023-04-27T11:04:19;102078.06;;;12.48;nan
70053;BME280;57398;52.032;4.376;2023-04-27T11:07:08;102064.16;;;13.07;nan
70053;BME280;57398;52.032;4.376;2023-04-27T11:09:56;102099.44;;;13.16;nan
70053;BME280;57398;52.032;4.376;2023-04-27T11:12:45;102107.50;;;13.15;nan
70053;BME280;57398;52.032;4.376;2023-04-27T11:15:43;102114.34;;;12.56;nan
70053;BME280;57398;52.032;4.376;2023-04-27T11:18:31;102094.41;;;13.35;nan
70053;BME280;57398;52.032;4.376;2023-04-27T11:21:21;102095.81;;;13.89;nan
70053;BME280;57398;52.032;4.376;2023-04-27T11:24:09;102108.59;;;13.59;nan
70053;BME280;57398;52.032;4.376;2023-04-27T11:27:00;102099.06;;;13.78;nan
70053;BME280;57398;52.032;4.376;2023-04-27T11:29:48;102101.75;;;14.03;nan
70053;BME280;57398;52.032;4.376;2023-04-27T11:32:38;102101.75;;;13.58;nan
70053;BME280;57398;52.032;4.376;2023-04-27T11:35:33;102106.13;;;13.71;nan
70053;BME280;57398;52.032;4.376;2023-04-27T11:38:22;102107.44;;;13.48;nan
70053;BME280;57398;52.032;4.376;2023-04-27T11:41:16;102111.38;;;13.71;nan
70053;BME280;57398;52.032;4.376;2023-04-27T11:44:06;102101.44;;;13.86;nan
70053;BME280;57398;52.032;4.376;2023-04-27T11:46:55;102104.22;;;13.91;nan
70053;BME280;57398;52.032;4.376;2023-04-27T11:49:47;102094.53;;;13.98;nan
70053;BME280;57398;52.032;4.376;2023-04-27T11:52:37;102109.25;;;13.41;nan
70053;BME280;57398;52.032;4.376;2023-04-27T11:55:26;102111.88;;;13.34;nan
70053;BME280;57398;52.032;4.376;2023-04-27T11:58:15;102115.09;;;13.23;nan
70053;BME280;57398;52.032;4.376;2023-04-27T12:01:04;102113.50;;;13.15;nan
70053;BME280;57398;52.032;4.376;2023-04-27T12:03:52;102119.97;;;12.93;nan
70053;BME280;57398;52.032;4.376;2023-04-27T12:06:42;102115.13;;;13.03;nan
70053;BME280;57398;52.032;4.376;2023-04-27T12:09:30;102105.44;;;13.24;nan
70053;BME280;57398;52.032;4.376;2023-04-27T12:12:20;102109.41;;;13.59;nan
70053;BME280;57398;52.032;4.376;2023-04-27T12:15:09;102106.66;;;13.21;nan
70053;BME280;57398;52.032;4.376;2023-04-27T12:17:57;102114.63;;;13.59;nan
70053;BME280;57398;52.032;4.376;2023-04-27T12:20:46;102120.28;;;13.50;nan
70053;BME280;57398;52.032;4.376;2023-04-27T12:23:35;102113.19;;;13.70;nan
70053;BME280;57398;52.032;4.376;2023-04-27T12:26:23;102103.34;;;14.04;nan
70053;BME280;57398;52.032;4.376;2023-04-27T12:29:12;102094.78;;;13.90;nan
70053;BME280;57398;52.032;4.376;2023-04-27T12:32:00;102092.63;;;14.19;nan
70053;BME280;57398;52.032;4.376;2023-04-27T12:34:48;102094.81;;;14.47;nan
70053;BME280;57398;52.032;4.376;2023-04-27T12:37:37;102094.16;;;14.27;nan
70053;BME280;57398;52.032;4.376;2023-04-27T12:40:27;102106.34;;;13.62;nan
70053;BME280;57398;52.032;4.376;2023-04-27T12:43:15;102087.25;;;13.69;nan
70053;BME280;57398;52.032;4.376;2023-04-27T12:46:03;102086.06;;;13.65;nan
70053;BME280;57398;52.032;4.376;2023-04-27T12:48:51;102087.06;;;13.70;nan
70053;BME280;57398;52.032;4.376;2023-04-27T12:51:43;102083.94;;;13.93;nan
70053;BME280;57398;52.032;4.376;2023-04-27T12:54:31;102098.53;;;13.62;nan
70053;BME280;57398;52.032;4.376;2023-04-27T12:57:20;102091.25;;;13.78;nan
70053;BME280;57398;52.032;4.376;2023-04-27T13:00:09;102082.44;;;14.04;nan
70053;BME280;57398;52.032;4.376;2023-04-27T13:02:57;102083.38;;;13.85;nan
70053;BME280;57398;52.032;4.376;2023-04-27T13:05:45;102076.69;;;13.50;nan
70053;BME280;57398;52.032;4.376;2023-04-27T13:08:35;102073.84;;;13.97;nan
70053;BME280;57398;52.032;4.376;2023-04-27T13:11:24;102092.81;;;13.27;nan
70053;BME280;57398;52.032;4.376;2023-04-27T13:14:14;102084.41;;;13.83;nan
70053;BME280;57398;52.032;4.376;2023-04-27T13:17:02;102073.81;;;13.65;nan
70053;BME280;57398;52.032;4.376;2023-04-27T13:19:50;102078.78;;;13.80;nan
70053;BME280;57398;52.032;4.376;2023-04-27T13:22:39;102068.41;;;13.98;nan
70053;BME280;57398;52.032;4.376;2023-04-27T13:25:28;102077.25;;;13.66;nan
70053;BME280;57398;52.032;4.376;2023-04-27T13:28:16;102078.97;;;13.33;nan
70053;BME280;57398;52.032;4.376;2023-04-27T13:31:05;102078.34;;;13.45;nan
70053;BME280;57398;52.032;4.376;2023-04-27T13:33:54;102070.03;;;13.61;nan
70053;BME280;57398;52.032;4.376;2023-04-27T13:36:42;102063.00;;;14.00;nan
70053;BME280;57398;52.032;4.376;2023-04-27T13:39:30;102073.16;;;13.25;nan
70053;BME280;57398;52.032;4.376;2023-04-27T13:42:18;102064.06;;;13.47;nan
70053;BME280;57398;52.032;4.376;2023-04-27T13:45:08;102048.88;;;13.24;nan
70053;BME280;57398;52.032;4.376;2023-04-27T13:47:57;102030.66;;;13.62;nan
70053;BME280;57398;52.032;4.376;2023-04-27T13:50:45;102027.34;;;13.80;nan
70053;BME280;57398;52.032;4.376;2023-04-27T13:53:34;102030.84;;;13.68;nan
70053;BME280;57398;52.032;4.376;2023-04-27T13:56:22;102029.59;;;13.32;nan
70053;BME280;57398;52.032;4.376;2023-04-27T13:59:10;102020.53;;;13.41;nan
70053;BME280;57398;52.032;4.376;2023-04-27T14:01:58;102018.34;;;13.38;nan
70053;BME280;57398;52.032;4.376;2023-04-27T14:04:47;102008.72;;;13.18;nan
70053;BME280;57398;52.032;4.376;2023-04-27T14:07:35;102004.22;;;13.46;nan
70053;BME280;57398;52.032;4.376;2023-04-27T14:10:24;102021.19;;;13.68;nan
70053;BME280;57398;52.032;4.376;2023-04-27T14:13:12;102002.69;;;13.38;nan
70053;BME280;57398;52.032;4.376;2023-04-27T14:16:00;102008.69;;;13.77;nan
70053;BME280;57398;52.032;4.376;2023-04-27T14:18:49;102004.13;;;13.66;nan
70053;BME280;57398;52.032;4.376;2023-04-27T14:21:39;102002.28;;;14.30;nan
70053;BME280;57398;52.032;4.376;2023-04-27T14:24:27;101999.56;;;14.18;nan
70053;BME280;57398;52.032;4.376;2023-04-27T14:27:15;101997.19;;;14.60;nan
70053;BME280;57398;52.032;4.376;2023-04-27T14:30:04;102006.16;;;14.45;nan
70053;BME280;57398;52.032;4.376;2023-04-27T14:32:53;102001.00;;;14.82;nan
70053;BME280;57398;52.032;4.376;2023-04-27T14:35:41;101996.22;;;14.29;nan
70053;BME280;57398;52.032;4.376;2023-04-27T14:38:31;101989.00;;;14.50;nan
70053;BME280;57398;52.032;4.376;2023-04-27T14:41:19;101974.53;;;14.72;nan
70053;BME280;57398;52.032;4.376;2023-04-27T14:44:07;101979.56;;;14.49;nan
70053;BME280;57398;52.032;4.376;2023-04-27T14:46:55;101981.00;;;13.69;nan
70053;BME280;57398;52.032;4.376;2023-04-27T14:49:44;101973.47;;;13.86;nan
70053;BME280;57398;52.032;4.376;2023-04-27T14:52:32;101970.66;;;13.81;nan
70053;BME280;57398;52.032;4.376;2023-04-27T14:55:21;101970.47;;;14.33;nan
70053;BME280;57398;52.032;4.376;2023-04-27T14:58:10;101976.31;;;14.10;nan
70053;BME280;57398;52.032;4.376;2023-04-27T15:00:59;101962.13;;;14.42;nan
70053;BME280;57398;52.032;4.376;2023-04-27T15:03:47;101971.78;;;14.42;nan
70053;BME280;57398;52.032;4.376;2023-04-27T15:06:36;101967.16;;;14.44;nan
70053;BME280;57398;52.032;4.376;2023-04-27T15:09:25;101963.00;;;14.36;nan
70053;BME280;57398;52.032;4.376;2023-04-27T15:12:14;101953.19;;;14.32;nan
70053;BME280;57398;52.032;4.376;2023-04-27T15:15:03;101963.25;;;14.53;nan
70053;BME280;57398;52.032;4.376;2023-04-27T15:17:53;101953.97;;;14.57;nan